Time;durP1;ratioP1;P1;durP2;ratioP2;P2;SDS_P1;SDS_P2;PMS_P1;PMS_P2;Temp;Humidity;BMP_temperature;BMP_pressure;BME280_temperature;BME280_humidity;BME280_pressure;Samples;Min_cycle;Max_cycle;Signal;HPM_P1;HPM_P2
2021/12/06 00:01:56;;;;;;;42.72;24.13;;;3.90;99.90;;;;;;4965462;28;20209;-85
2021/12/06 00:04:25;;;;;;;41.65;24.35;;;3.80;99.90;;;;;;4938653;28;20060;-85
2021/12/06 00:06:58;;;;;;;40.40;24.27;;;3.90;99.90;;;;;;4990873;28;20131;-84
2021/12/06 00:09:26;;;;;;;41.25;24.88;;;3.70;99.90;;;;;;4973383;28;20064;-85
2021/12/06 00:11:57;;;;;;;45.97;25.67;;;3.70;99.90;;;;;;4950729;28;20059;-84
2021/12/06 00:14:29;;;;;;;40.47;25.38;;;3.70;99.90;;;;;;4989475;28;20048;-84
2021/12/06 00:17:00;;;;;;;43.33;26.48;;;3.70;99.90;;;;;;4960162;28;21062;-85
2021/12/06 00:19:27;;;;;;;47.72;26.25;;;3.80;99.90;;;;;;4965443;28;20153;-84
2021/12/06 00:21:54;;;;;;;45.38;25.65;;;3.90;99.90;;;;;;4965568;28;20053;-85
2021/12/06 00:24:20;;;;;;;45.17;26.05;;;3.70;99.90;;;;;;4948771;28;20048;-84
2021/12/06 00:26:46;;;;;;;50.72;27.98;;;3.70;99.90;;;;;;4973890;28;20044;-85
2021/12/06 00:29:12;;;;;;;56.25;28.95;;;3.70;99.90;;;;;;4963132;28;20056;-84
2021/12/06 00:31:39;;;;;;;53.78;28.52;;;3.60;99.90;;;;;;4968649;28;20102;-85
2021/12/06 00:34:10;;;;;;;53.90;29.63;;;3.60;99.90;;;;;;4966371;28;20037;-84
2021/12/06 00:36:39;;;;;;;49.67;27.73;;;3.70;99.90;;;;;;4969257;28;20562;-84
2021/12/06 00:39:12;;;;;;;58.25;30.10;;;3.50;99.90;;;;;;4949435;28;20124;-85
2021/12/06 00:41:40;;;;;;;60.92;29.13;;;3.70;99.90;;;;;;4961792;28;20052;-85
2021/12/06 00:44:07;;;;;;;59.45;28.88;;;3.60;99.90;;;;;;4961481;28;20052;-85
2021/12/06 00:46:37;;;;;;;61.78;30.98;;;3.50;99.90;;;;;;4961365;28;20127;-84
2021/12/06 00:49:08;;;;;;;67.72;32.08;;;3.60;99.90;;;;;;4960636;28;20056;-85
2021/12/06 00:51:35;;;;;;;71.07;32.20;;;3.70;99.90;;;;;;4962570;28;20113;-85
2021/12/06 00:54:01;;;;;;;71.88;32.92;;;3.60;99.90;;;;;;4953342;28;20096;-84
2021/12/06 00:56:27;;;;;;;66.10;31.30;;;3.60;99.90;;;;;;4964704;28;20506;-84
2021/12/06 00:58:53;;;;;;;67.75;31.52;;;3.60;99.90;;;;;;4933083;28;20045;-85
2021/12/06 01:01:19;;;;;;;61.13;30.83;;;3.70;99.90;;;;;;4964623;28;20532;-84
2021/12/06 01:03:45;;;;;;;65.20;30.77;;;3.60;99.90;;;;;;4967648;28;20121;-85
2021/12/06 01:06:13;;;;;;;61.22;30.20;;;3.50;99.90;;;;;;4967196;28;20074;-85
2021/12/06 01:08:40;;;;;;;58.58;28.92;;;3.70;99.90;;;;;;4992425;28;20106;-84
2021/12/06 01:11:08;;;;;;;61.53;30.85;;;3.60;99.90;;;;;;4965819;28;20048;-84
2021/12/06 01:13:35;;;;;;;64.28;31.88;;;3.70;99.90;;;;;;4979139;28;20272;-85
2021/12/06 01:16:01;;;;;;;59.10;29.50;;;3.70;99.90;;;;;;4973242;28;20772;-85
2021/12/06 01:18:28;;;;;;;56.67;29.33;;;3.70;99.90;;;;;;4952446;28;20049;-84
2021/12/06 01:21:15;;;;;;;63.15;30.30;;;3.60;99.90;;;;;;4969841;28;20164;-85
2021/12/06 01:23:59;;;;;;;53.70;29.23;;;3.70;99.90;;;;;;4983739;28;20459;-84
2021/12/06 01:32:21;;;;;;;59.47;30.58;;;3.50;99.90;;;;;;4907870;28;20078;-84
2021/12/06 01:40:20;;;;;;;70.35;32.50;;;3.50;99.90;;;;;;4964784;28;20107;-85
2021/12/06 01:42:46;;;;;;;77.80;33.45;;;3.40;99.90;;;;;;4965466;28;20044;-84
2021/12/06 01:45:12;;;;;;;74.97;32.63;;;3.40;99.90;;;;;;4965200;28;20587;-85
2021/12/06 01:47:39;;;;;;;74.78;33.00;;;3.40;99.90;;;;;;4932827;28;20413;-84
2021/12/06 01:50:09;;;;;;;84.68;32.00;;;3.40;99.90;;;;;;4965021;28;20122;-85
2021/12/06 01:52:43;;;;;;;67.13;30.55;;;3.40;99.90;;;;;;4963720;28;20059;-84
2021/12/06 01:55:14;;;;;;;79.63;31.90;;;3.40;99.90;;;;;;4951867;28;20448;-85
2021/12/06 01:57:40;;;;;;;92.78;32.95;;;3.40;99.90;;;;;;4968823;28;20910;-85
2021/12/06 02:00:20;;;;;;;84.65;32.83;;;3.40;99.90;;;;;;4989939;28;20193;-85
2021/12/06 02:02:46;;;;;;;80.45;30.42;;;3.40;99.90;;;;;;4982264;28;20060;-85
2021/12/06 02:05:12;;;;;;;94.28;34.95;;;3.30;99.90;;;;;;4964697;28;20195;-84
2021/12/06 02:07:38;;;;;;;117.45;35.13;;;3.30;99.90;;;;;;4985727;28;20512;-84
2021/12/06 02:10:07;;;;;;;94.72;34.30;;;3.30;99.90;;;;;;4962782;28;20235;-85
2021/12/06 02:12:33;;;;;;;94.07;33.92;;;3.20;99.90;;;;;;4993144;28;20452;-84
2021/12/06 02:15:07;;;;;;;97.55;35.17;;;3.20;99.90;;;;;;4998356;28;20040;-85
2021/12/06 02:17:38;;;;;;;89.25;35.13;;;3.30;99.90;;;;;;4958301;28;20056;-85
2021/12/06 02:20:16;;;;;;;98.75;36.33;;;3.20;99.90;;;;;;4989635;28;20052;-84
2021/12/06 02:22:45;;;;;;;102.93;36.33;;;3.30;99.90;;;;;;4971108;28;21074;-84
2021/12/06 02:25:16;;;;;;;116.53;37.40;;;3.30;99.90;;;;;;4969620;28;20888;-84
2021/12/06 02:27:42;;;;;;;94.82;35.03;;;3.40;99.90;;;;;;4967651;28;20109;-84
2021/12/06 02:30:12;;;;;;;96.35;34.00;;;3.40;99.90;;;;;;4967457;28;20135;-84
2021/12/06 02:32:38;;;;;;;95.28;35.83;;;3.30;99.90;;;;;;4991142;28;20080;-84
2021/12/06 02:35:10;;;;;;;91.97;36.28;;;3.40;99.90;;;;;;4951840;28;20121;-84
2021/12/06 02:37:36;;;;;;;105.03;35.50;;;3.40;99.90;;;;;;4976289;28;20365;-84
2021/12/06 02:40:11;;;;;;;112.15;37.08;;;3.40;99.90;;;;;;4957631;28;20633;-84
2021/12/06 02:42:38;;;;;;;115.00;38.88;;;3.50;99.90;;;;;;4966331;28;20337;-85
2021/12/06 02:45:06;;;;;;;119.05;37.65;;;3.50;99.90;;;;;;4974079;28;20409;-85
2021/12/06 02:47:32;;;;;;;98.28;38.30;;;3.50;99.90;;;;;;4971799;28;20045;-85
2021/12/06 02:50:05;;;;;;;98.72;37.97;;;3.40;99.90;;;;;;4966416;28;20424;-84
2021/12/06 02:52:31;;;;;;;107.30;36.53;;;3.40;99.90;;;;;;4964291;28;20555;-85
2021/12/06 02:55:01;;;;;;;108.10;37.30;;;3.30;99.90;;;;;;4965996;28;20118;-85
2021/12/06 02:57:38;;;;;;;90.80;35.08;;;3.30;99.90;;;;;;4984419;28;20127;-85
2021/12/06 03:00:09;;;;;;;115.32;37.40;;;3.30;99.90;;;;;;4964159;28;20589;-85
2021/12/06 03:02:35;;;;;;;118.10;38.33;;;3.20;99.90;;;;;;4974889;28;20080;-84
2021/12/06 03:05:02;;;;;;;115.32;37.88;;;3.30;99.90;;;;;;4983869;28;20056;-84
2021/12/06 03:07:28;;;;;;;124.55;39.03;;;3.30;99.90;;;;;;4946245;28;20040;-85
2021/12/06 03:09:56;;;;;;;111.10;37.92;;;3.20;99.90;;;;;;4969453;28;20508;-85
2021/12/06 03:12:26;;;;;;;118.10;39.28;;;3.20;99.90;;;;;;4984539;28;20044;-85
2021/12/06 03:14:56;;;;;;;131.30;40.50;;;3.30;99.90;;;;;;4963842;28;20045;-84
2021/12/06 03:17:24;;;;;;;133.20;38.80;;;3.30;99.90;;;;;;4968991;28;20083;-85
2021/12/06 03:19:53;;;;;;;140.75;39.33;;;3.20;99.90;;;;;;4967617;28;20462;-84
2021/12/06 03:22:19;;;;;;;132.18;39.13;;;3.20;99.90;;;;;;4967996;28;20126;-85
2021/12/06 03:24:46;;;;;;;134.55;41.03;;;3.20;99.90;;;;;;4964218;28;20502;-84
2021/12/06 03:27:16;;;;;;;135.45;39.85;;;3.30;99.90;;;;;;4963646;28;20049;-85
2021/12/06 03:29:42;;;;;;;151.88;42.97;;;3.20;99.90;;;;;;4960155;28;20107;-84
2021/12/06 03:32:08;;;;;;;139.95;41.80;;;3.30;99.90;;;;;;4968773;28;20827;-85
2021/12/06 03:34:34;;;;;;;137.45;40.70;;;3.20;99.90;;;;;;4968454;28;20048;-85
2021/12/06 03:37:03;;;;;;;132.95;40.35;;;3.20;99.90;;;;;;4962224;28;20045;-85
2021/12/06 03:39:32;;;;;;;160.35;42.70;;;3.30;99.90;;;;;;4963635;28;20453;-84
2021/12/06 03:42:03;;;;;;;155.90;42.45;;;3.20;99.90;;;;;;4966928;28;20048;-85
2021/12/06 03:44:29;;;;;;;167.85;43.00;;;3.20;99.90;;;;;;4963931;28;20533;-85
2021/12/06 03:46:59;;;;;;;141.48;43.10;;;3.30;99.90;;;;;;4964448;28;20262;-84
2021/12/06 03:49:26;;;;;;;135.48;41.72;;;3.20;99.90;;;;;;4962898;28;20110;-85
2021/12/06 03:51:52;;;;;;;131.25;40.17;;;3.10;99.90;;;;;;4965477;28;20040;-85
2021/12/06 03:54:21;;;;;;;136.75;43.33;;;3.20;99.90;;;;;;4967405;28;20134;-85
2021/12/06 03:56:47;;;;;;;147.65;44.78;;;3.20;99.90;;;;;;4966461;28;20052;-84
2021/12/06 03:59:13;;;;;;;151.43;44.25;;;3.20;99.90;;;;;;4969470;28;20045;-85
2021/12/06 04:01:40;;;;;;;150.38;44.63;;;3.30;99.90;;;;;;4982830;28;20401;-85
2021/12/06 04:04:07;;;;;;;171.60;47.35;;;3.30;99.90;;;;;;4966780;28;20543;-85
2021/12/06 04:06:34;;;;;;;148.30;43.13;;;3.30;99.90;;;;;;4948133;28;20048;-84
2021/12/06 04:09:01;;;;;;;145.90;42.38;;;3.20;99.90;;;;;;4969896;28;20062;-84
2021/12/06 04:11:27;;;;;;;136.98;42.45;;;3.20;99.90;;;;;;4956259;28;20102;-85
2021/12/06 04:13:53;;;;;;;139.25;43.83;;;3.30;99.90;;;;;;4970122;28;20044;-85
2021/12/06 04:16:19;;;;;;;147.35;44.40;;;3.30;99.90;;;;;;4984239;28;20041;-85
2021/12/06 04:18:46;;;;;;;143.27;43.97;;;3.30;99.90;;;;;;4967358;28;20044;-85
2021/12/06 04:21:12;;;;;;;149.95;45.35;;;3.30;99.90;;;;;;4962259;28;20553;-84
2021/12/06 04:23:38;;;;;;;145.43;46.88;;;3.30;99.90;;;;;;4963286;28;20788;-85
2021/12/06 04:26:05;;;;;;;145.52;48.30;;;3.20;99.90;;;;;;4967629;28;20465;-84
2021/12/06 04:28:33;;;;;;;134.30;45.80;;;3.30;99.90;;;;;;4945621;28;20185;-84
2021/12/06 04:30:59;;;;;;;143.88;46.97;;;3.30;99.90;;;;;;4963092;28;20886;-85
2021/12/06 04:33:25;;;;;;;141.45;45.03;;;3.30;99.90;;;;;;4966420;28;21308;-84
2021/12/06 04:35:51;;;;;;;133.77;46.08;;;3.30;99.90;;;;;;4962813;28;20054;-84
2021/12/06 04:38:17;;;;;;;139.43;46.47;;;3.30;99.90;;;;;;4950938;28;20063;-85
2021/12/06 04:40:44;;;;;;;128.13;45.08;;;3.30;99.90;;;;;;4982548;28;20056;-84
2021/12/06 04:43:12;;;;;;;119.93;44.80;;;3.30;99.90;;;;;;4963858;28;20125;-84
2021/12/06 04:45:38;;;;;;;115.93;43.95;;;3.30;99.90;;;;;;4962241;28;20393;-84
2021/12/06 04:48:06;;;;;;;97.53;42.55;;;3.30;99.90;;;;;;4961482;28;20048;-85
2021/12/06 04:50:33;;;;;;;102.63;40.92;;;3.30;99.90;;;;;;4948528;28;20860;-84
2021/12/06 04:53:06;;;;;;;87.88;39.03;;;3.30;99.90;;;;;;4967126;28;20056;-85
2021/12/06 04:55:40;;;;;;;79.75;39.05;;;3.20;99.90;;;;;;4985066;28;20670;-85
2021/12/06 04:58:06;;;;;;;;;;;3.20;99.90;;;;;;4962224;28;20137;-85
2021/12/06 05:00:35;;;;;;;83.25;38.75;;;3.30;99.90;;;;;;4962466;28;20678;-85
2021/12/06 05:03:02;;;;;;;80.53;37.72;;;3.40;99.90;;;;;;4962731;28;20056;-85
2021/12/06 05:05:51;;;;;;;73.68;36.65;;;3.40;99.90;;;;;;4947289;28;20044;-85
2021/12/06 05:08:25;;;;;;;75.95;36.88;;;3.50;99.90;;;;;;4965105;28;20514;-84
2021/12/06 05:10:53;;;;;;;78.60;36.55;;;3.50;99.90;;;;;;4989667;28;20052;-85
2021/12/06 05:13:19;;;;;;;83.50;36.55;;;3.40;99.90;;;;;;4965060;28;20433;-84
2021/12/06 05:15:45;;;;;;;82.28;36.72;;;3.30;99.90;;;;;;4962521;28;20048;-84
2021/12/06 05:18:11;;;;;;;78.28;36.72;;;3.30;99.90;;;;;;4967594;28;20052;-85
2021/12/06 05:20:38;;;;;;;81.40;37.15;;;3.20;99.90;;;;;;4966318;28;20553;-84
2021/12/06 05:23:08;;;;;;;83.07;37.05;;;3.40;99.90;;;;;;4970287;28;20127;-85
2021/12/06 05:25:34;;;;;;;87.63;39.65;;;3.20;99.90;;;;;;4958662;28;20033;-85
2021/12/06 05:28:00;;;;;;;87.88;39.25;;;3.30;99.90;;;;;;4979234;28;20044;-84
2021/12/06 05:30:27;;;;;;;95.75;38.80;;;3.20;99.90;;;;;;4989620;28;20048;-85
2021/12/06 05:32:58;;;;;;;93.72;39.50;;;3.20;99.90;;;;;;4971542;28;20050;-84
2021/12/06 05:35:24;;;;;;;93.90;40.08;;;3.30;99.90;;;;;;4967635;28;20048;-85
2021/12/06 05:37:56;;;;;;;91.82;39.03;;;3.30;99.90;;;;;;4959661;28;20118;-85
2021/12/06 05:40:25;;;;;;;93.63;39.70;;;3.40;99.90;;;;;;4963857;28;20848;-85
2021/12/06 05:42:53;;;;;;;94.95;40.75;;;3.40;99.90;;;;;;4965976;28;20049;-84
2021/12/06 05:45:22;;;;;;;106.60;40.67;;;3.30;99.90;;;;;;4961703;28;20048;-85
2021/12/06 05:47:48;;;;;;;90.35;39.47;;;3.30;99.90;;;;;;4960894;28;20431;-85
2021/12/06 05:50:16;;;;;;;79.38;36.47;;;3.20;99.90;;;;;;4978358;28;20585;-85
2021/12/06 05:52:42;;;;;;;84.90;36.97;;;3.20;99.90;;;;;;4965250;28;20410;-84
2021/12/06 05:55:09;;;;;;;82.45;35.97;;;3.20;99.90;;;;;;4960617;28;20072;-84
2021/12/06 05:57:36;;;;;;;80.55;35.60;;;3.10;99.90;;;;;;4946561;28;20087;-85
2021/12/06 06:00:07;;;;;;;82.38;36.17;;;3.00;99.90;;;;;;4959125;28;20048;-84
2021/12/06 06:02:35;;;;;;;88.18;37.10;;;3.00;99.90;;;;;;4963945;28;20127;-85
2021/12/06 06:05:00;;;;;;;85.78;37.47;;;3.10;99.90;;;;;;4962557;28;20498;-84
2021/12/06 06:07:26;;;;;;;94.80;37.92;;;3.10;99.90;;;;;;4961299;28;20056;-84
2021/12/06 06:09:52;;;;;;;93.63;37.78;;;3.00;99.90;;;;;;4959441;28;20060;-85
2021/12/06 06:12:18;;;;;;;85.60;37.60;;;3.10;99.90;;;;;;4966895;28;20411;-85
2021/12/06 06:14:44;;;;;;;83.53;35.85;;;3.00;99.90;;;;;;4962974;28;20208;-85
2021/12/06 06:17:13;;;;;;;88.65;38.03;;;3.00;99.90;;;;;;4979726;28;20110;-85
2021/12/06 06:19:43;;;;;;;92.20;37.47;;;3.00;99.90;;;;;;4967051;28;20592;-85
2021/12/06 06:22:09;;;;;;;85.80;37.28;;;3.00;99.90;;;;;;4964179;28;20326;-85
2021/12/06 06:24:35;;;;;;;94.00;37.55;;;3.00;99.90;;;;;;4952017;28;20788;-84
2021/12/06 06:27:01;;;;;;;83.75;36.50;;;3.10;99.90;;;;;;4966590;28;20057;-84
2021/12/06 06:29:27;;;;;;;91.72;37.60;;;2.90;99.90;;;;;;4969687;28;20774;-84
2021/12/06 06:31:53;;;;;;;83.45;37.67;;;3.00;99.90;;;;;;4966733;28;20076;-84
2021/12/06 06:34:19;;;;;;;78.32;36.95;;;2.90;99.90;;;;;;4964701;28;20063;-84
2021/12/06 06:36:46;;;;;;;83.95;37.47;;;2.90;99.90;;;;;;4951549;28;20048;-84
2021/12/06 06:39:13;;;;;;;75.07;33.30;;;2.90;99.90;;;;;;4972203;28;20053;-84
2021/12/06 06:41:39;;;;;;;81.18;36.53;;;2.90;99.90;;;;;;4967246;28;20691;-84
2021/12/06 06:44:05;;;;;;;79.22;35.42;;;2.80;99.90;;;;;;4969544;28;20452;-84
2021/12/06 06:46:32;;;;;;;74.25;34.95;;;2.90;99.90;;;;;;4973053;28;20052;-84
2021/12/06 06:48:59;;;;;;;77.15;35.67;;;2.90;99.90;;;;;;4971533;28;20076;-83
2021/12/06 06:51:27;;;;;;;74.13;34.08;;;2.90;99.90;;;;;;4967892;28;20045;-84
2021/12/06 06:53:53;;;;;;;77.18;34.05;;;2.90;99.90;;;;;;4967490;28;20921;-84
2021/12/06 06:56:19;;;;;;;72.25;33.88;;;3.00;99.90;;;;;;4952103;28;21034;-85
2021/12/06 06:58:45;;;;;;;73.53;33.40;;;2.90;99.90;;;;;;4963234;28;20045;-84
2021/12/06 07:01:11;;;;;;;72.72;32.90;;;2.90;99.90;;;;;;4964231;28;20527;-84
2021/12/06 07:03:36;;;;;;;79.88;37.70;;;2.90;99.90;;;;;;4965637;28;20064;-84
2021/12/06 07:06:03;;;;;;;91.00;42.33;;;2.90;99.90;;;;;;4963046;28;20473;-85
2021/12/06 07:08:29;;;;;;;87.55;42.00;;;2.90;99.90;;;;;;4966132;28;20566;-85
2021/12/06 07:10:56;;;;;;;109.90;46.10;;;3.00;99.90;;;;;;4958831;28;20049;-85
2021/12/06 07:13:26;;;;;;;115.72;48.00;;;2.90;99.90;;;;;;4967095;28;20498;-84
2021/12/06 07:15:52;;;;;;;119.95;49.10;;;3.00;99.90;;;;;;4961082;28;20060;-84
2021/12/06 07:18:17;;;;;;;123.63;50.33;;;2.90;99.90;;;;;;4964027;28;20048;-84
2021/12/06 07:20:43;;;;;;;126.38;54.03;;;2.80;99.90;;;;;;4961967;28;20406;-85
2021/12/06 07:23:09;;;;;;;124.85;51.05;;;2.80;99.90;;;;;;4943599;28;20548;-85
2021/12/06 07:25:35;;;;;;;120.53;51.17;;;2.70;99.90;;;;;;4958867;28;20045;-84
2021/12/06 07:28:05;;;;;;;139.82;53.67;;;2.80;99.90;;;;;;4959905;28;20530;-84
2021/12/06 07:30:31;;;;;;;136.55;53.25;;;2.90;99.90;;;;;;4960392;28;20439;-84
2021/12/06 07:32:57;;;;;;;132.57;52.20;;;2.80;99.90;;;;;;4982923;28;20073;-85
2021/12/06 07:35:26;;;;;;;149.95;53.13;;;2.70;99.90;;;;;;4935625;28;20083;-84
2021/12/06 07:37:52;;;;;;;143.77;51.33;;;2.60;99.90;;;;;;4966510;28;20054;-83
2021/12/06 07:40:18;;;;;;;135.95;52.22;;;2.70;99.90;;;;;;4964861;28;20048;-84
2021/12/06 07:42:44;;;;;;;139.05;52.33;;;2.80;99.90;;;;;;4970190;28;20148;-85
2021/12/06 07:45:13;;;;;;;142.30;52.63;;;2.90;99.90;;;;;;4961893;28;20402;-84
2021/12/06 07:47:39;;;;;;;144.85;51.53;;;2.80;99.90;;;;;;4964617;28;20059;-86
2021/12/06 07:50:09;;;;;;;139.70;54.03;;;2.70;99.90;;;;;;4967050;28;20063;-83
2021/12/06 07:52:35;;;;;;;137.60;52.92;;;2.70;99.90;;;;;;4963060;28;20076;-84
2021/12/06 07:55:06;;;;;;;132.25;52.30;;;2.80;99.90;;;;;;4971089;28;20122;-84
2021/12/06 07:57:32;;;;;;;131.05;50.80;;;2.80;99.90;;;;;;4970308;28;20051;-84
2021/12/06 07:59:57;;;;;;;124.85;50.63;;;2.90;99.90;;;;;;4959431;28;20515;-85
2021/12/06 08:02:23;;;;;;;126.72;50.80;;;2.90;99.90;;;;;;4967710;28;20039;-84
2021/12/06 08:04:59;;;;;;;123.43;49.17;;;2.80;99.90;;;;;;4948047;28;20037;-84
2021/12/06 08:07:25;;;;;;;129.75;47.55;;;2.90;99.90;;;;;;4966458;28;20720;-83
2021/12/06 08:09:51;;;;;;;95.75;41.17;;;3.00;99.90;;;;;;4970083;28;20061;-84
2021/12/06 08:12:17;;;;;;;104.55;42.90;;;2.80;99.90;;;;;;4967196;28;20065;-85
2021/12/06 08:14:45;;;;;;;74.63;34.22;;;3.00;99.90;;;;;;4964520;28;20044;-84
2021/12/06 08:17:11;;;;;;;61.83;31.13;;;3.00;99.90;;;;;;4968018;28;20593;-84
2021/12/06 08:19:37;;;;;;;64.57;29.40;;;3.00;99.90;;;;;;4950123;28;20078;-85
2021/12/06 08:22:03;;;;;;;65.95;29.60;;;3.00;99.90;;;;;;4943951;28;20060;-85
2021/12/06 08:24:29;;;;;;;61.33;28.27;;;2.90;99.90;;;;;;4948879;28;20703;-86
2021/12/06 08:26:54;;;;;;;67.97;28.45;;;3.00;99.90;;;;;;4965664;28;20159;-84
2021/12/06 08:29:22;;;;;;;57.92;27.25;;;3.10;99.90;;;;;;4965475;28;20147;-84
2021/12/06 08:31:47;;;;;;;58.25;27.42;;;3.10;99.90;;;;;;4947215;28;20077;-84
2021/12/06 08:34:14;;;;;;;62.85;29.05;;;3.10;99.90;;;;;;4962798;28;20401;-84
2021/12/06 08:36:40;;;;;;;65.07;29.27;;;3.10;99.90;;;;;;4964695;28;20283;-84
2021/12/06 08:39:06;;;;;;;58.65;28.08;;;3.00;99.90;;;;;;4962777;28;20528;-84
2021/12/06 08:41:33;;;;;;;64.95;30.40;;;3.00;99.90;;;;;;4983924;28;20516;-86
2021/12/06 08:44:01;;;;;;;66.38;29.27;;;3.00;99.90;;;;;;4977268;28;20107;-82
2021/12/06 08:46:34;;;;;;;68.28;29.85;;;3.00;99.90;;;;;;4964424;28;20067;-82
2021/12/06 08:49:05;;;;;;;66.35;29.23;;;3.10;99.90;;;;;;4966142;28;20078;-84
2021/12/06 08:51:41;;;;;;;64.63;29.25;;;3.10;99.90;;;;;;4964639;28;20115;-85
2021/12/06 08:54:08;;;;;;;62.00;28.20;;;3.20;99.90;;;;;;4964560;28;20719;-84
2021/12/06 08:56:36;;;;;;;60.20;28.73;;;3.20;99.90;;;;;;4965468;28;20064;-85
2021/12/06 08:59:04;;;;;;;64.40;29.23;;;3.20;99.90;;;;;;4967024;28;20049;-85
2021/12/06 09:01:30;;;;;;;60.35;28.42;;;3.20;99.90;;;;;;4951021;28;20074;-84
2021/12/06 09:03:56;;;;;;;56.55;27.38;;;3.10;99.90;;;;;;4964224;28;20052;-82
2021/12/06 09:06:22;;;;;;;43.33;23.92;;;3.10;99.90;;;;;;4967887;28;20051;-83
2021/12/06 09:08:48;;;;;;;45.63;23.92;;;3.20;99.90;;;;;;4965957;28;20065;-85
2021/12/06 09:11:14;;;;;;;45.33;23.20;;;3.30;99.90;;;;;;4965449;28;20518;-85
2021/12/06 09:13:41;;;;;;;43.33;21.75;;;3.30;99.90;;;;;;4951668;28;20052;-84
2021/12/06 09:16:10;;;;;;;36.85;22.05;;;3.20;99.90;;;;;;4953797;28;20049;-84
2021/12/06 09:18:38;;;;;;;45.70;22.95;;;3.30;99.90;;;;;;4977135;28;20219;-85
2021/12/06 09:21:11;;;;;;;38.80;21.83;;;3.10;99.90;;;;;;4967452;28;20057;-86
2021/12/06 09:23:38;;;;;;;43.88;22.42;;;3.30;99.90;;;;;;4970019;28;20053;-82
2021/12/06 09:26:04;;;;;;;40.58;22.63;;;3.20;99.90;;;;;;4950161;28;20099;-85
2021/12/06 09:28:31;;;;;;;38.35;20.30;;;3.40;99.90;;;;;;4967270;28;20428;-83
2021/12/06 09:30:58;;;;;;;40.60;21.55;;;3.30;99.90;;;;;;4967857;28;20051;-82
2021/12/06 09:33:24;;;;;;;38.25;21.70;;;3.30;99.90;;;;;;4970452;28;20342;-82
2021/12/06 09:35:54;;;;;;;37.92;20.85;;;3.30;99.90;;;;;;4969894;28;20102;-85
2021/12/06 09:38:27;;;;;;;38.33;21.48;;;3.30;99.90;;;;;;4964422;28;20076;-83
2021/12/06 09:40:55;;;;;;;41.15;22.08;;;3.30;99.90;;;;;;4975291;28;20752;-83
2021/12/06 09:43:21;;;;;;;40.92;21.52;;;3.50;99.90;;;;;;4968163;28;20053;-84
2021/12/06 09:45:48;;;;;;;37.30;20.80;;;3.40;99.90;;;;;;4974973;28;20044;-82
2021/12/06 09:48:16;;;;;;;38.00;21.33;;;3.50;99.90;;;;;;4972334;28;20132;-84
2021/12/06 09:50:54;;;;;;;39.00;21.60;;;3.50;99.90;;;;;;4968413;28;20454;-85
2021/12/06 09:53:24;;;;;;;36.33;21.45;;;3.50;99.90;;;;;;4953590;28;20052;-85
2021/12/06 09:55:53;;;;;;;37.22;20.80;;;3.50;99.90;;;;;;4966627;28;20833;-84
2021/12/06 09:58:20;;;;;;;36.60;20.67;;;3.50;99.90;;;;;;4954493;28;20052;-84
2021/12/06 10:00:52;;;;;;;35.90;20.90;;;3.50;99.90;;;;;;4986140;28;20550;-84
2021/12/06 10:03:24;;;;;;;34.30;20.85;;;3.40;99.90;;;;;;4966144;28;20624;-85
2021/12/06 10:05:50;;;;;;;35.67;21.80;;;3.60;99.90;;;;;;4936045;28;20508;-83
2021/12/06 10:08:17;;;;;;;37.60;21.42;;;3.60;99.90;;;;;;4970583;28;20052;-83
2021/12/06 10:10:44;;;;;;;37.60;22.33;;;3.70;99.90;;;;;;4997855;28;20100;-84
2021/12/06 10:13:10;;;;;;;41.60;23.60;;;3.70;99.90;;;;;;4970401;28;20163;-84
2021/12/06 10:15:36;;;;;;;39.80;24.15;;;3.80;99.90;;;;;;4968942;28;20040;-85
2021/12/06 10:18:04;;;;;;;43.60;24.52;;;3.80;99.90;;;;;;4966545;28;20251;-84
2021/12/06 10:20:31;;;;;;;41.38;23.95;;;3.90;99.90;;;;;;4968398;28;20385;-85
2021/12/06 10:22:59;;;;;;;47.08;25.77;;;3.80;99.90;;;;;;4939276;28;20403;-86
2021/12/06 10:25:37;;;;;;;42.55;24.98;;;3.80;99.90;;;;;;4973653;28;20057;-87
2021/12/06 10:28:05;;;;;;;40.58;23.98;;;3.90;99.90;;;;;;4975339;28;20052;-84
2021/12/06 10:30:36;;;;;;;39.40;24.65;;;4.00;99.90;;;;;;4973620;28;20044;-87
2021/12/06 10:33:16;;;;;;;44.05;23.40;;;4.00;99.90;;;;;;4978969;28;20397;-84
2021/12/06 10:35:46;;;;;;;41.20;23.45;;;4.00;99.90;;;;;;4988636;28;20048;-84
2021/12/06 10:38:20;;;;;;;38.40;21.65;;;3.90;99.90;;;;;;4967526;28;20064;-85
2021/12/06 10:40:47;;;;;;;37.53;22.30;;;3.80;99.90;;;;;;4972055;28;20052;-83
2021/12/06 10:43:13;;;;;;;36.47;21.10;;;4.00;99.90;;;;;;4993285;28;20048;-85
2021/12/06 10:45:44;;;;;;;38.78;21.02;;;4.00;99.90;;;;;;4967819;28;20490;-83
2021/12/06 10:48:20;;;;;;;35.33;20.70;;;4.10;99.90;;;;;;4963081;28;20051;-84
2021/12/06 10:50:53;;;;;;;33.17;19.65;;;4.00;99.90;;;;;;4972959;28;20897;-84
2021/12/06 10:53:38;;;;;;;35.70;21.48;;;4.00;99.90;;;;;;4972048;28;20048;-84
2021/12/06 10:56:16;;;;;;;35.38;20.83;;;3.90;99.90;;;;;;4970090;28;20111;-83
2021/12/06 10:58:42;;;;;;;36.00;21.85;;;3.90;99.90;;;;;;4984657;28;20049;-83
2021/12/06 11:01:13;;;;;;;35.13;21.92;;;3.80;99.90;;;;;;4966389;28;20444;-84
2021/12/06 11:03:52;;;;;;;42.15;23.83;;;3.90;99.90;;;;;;4991524;28;20036;-85
2021/12/06 11:06:25;;;;;;;40.28;22.38;;;4.00;99.90;;;;;;4969032;28;20060;-84
2021/12/06 11:08:54;;;;;;;40.70;22.23;;;4.00;99.90;;;;;;4972426;28;20067;-84
2021/12/06 11:11:28;;;;;;;39.67;21.70;;;4.10;99.90;;;;;;4968846;28;20609;-85
2021/12/06 11:14:00;;;;;;;39.80;21.00;;;4.20;99.90;;;;;;4972201;28;21145;-84
2021/12/06 11:16:28;;;;;;;38.30;21.10;;;4.20;99.90;;;;;;4966557;28;20049;-84
2021/12/06 11:19:01;;;;;;;39.00;22.17;;;4.20;99.90;;;;;;4969649;28;20620;-86
2021/12/06 11:21:48;;;;;;;41.50;23.63;;;4.20;99.90;;;;;;4983172;28;20045;-84
2021/12/06 11:24:19;;;;;;;40.75;23.10;;;4.10;99.90;;;;;;4971248;28;20048;-86
2021/12/06 11:26:48;;;;;;;39.13;22.40;;;4.20;99.90;;;;;;4974613;28;20640;-85
2021/12/06 11:29:21;;;;;;;38.65;21.88;;;4.20;99.90;;;;;;4969132;28;20072;-84
2021/12/06 11:32:05;;;;;;;;;;;4.20;99.90;;;;;;4970648;28;20814;-84
2021/12/06 11:34:43;;;;;;;38.67;21.65;;;4.30;99.90;;;;;;4965764;28;20386;-84
2021/12/06 11:37:25;;;;;;;38.95;22.45;;;4.30;99.90;;;;;;4970652;28;20197;-85
2021/12/06 11:40:33;;;;;;;36.47;21.10;;;4.40;99.90;;;;;;4967599;28;20066;-84
2021/12/06 11:43:05;;;;;;;39.17;20.92;;;4.40;99.90;;;;;;4964228;28;20064;-82
2021/12/06 11:45:47;;;;;;;41.47;22.08;;;4.40;99.90;;;;;;4969138;28;20244;-84
2021/12/06 11:48:21;;;;;;;34.95;19.63;;;4.60;99.90;;;;;;4974496;28;20110;-84
2021/12/06 11:50:48;;;;;;;35.67;20.38;;;4.60;99.90;;;;;;4967524;28;20102;-83
2021/12/06 11:53:16;;;;;;;33.50;19.15;;;4.60;99.90;;;;;;4972011;28;20482;-84
2021/12/06 11:55:46;;;;;;;35.13;20.45;;;4.50;99.90;;;;;;4969276;28;20690;-85
2021/12/06 11:58:33;;;;;;;40.15;21.73;;;4.60;99.90;;;;;;4987450;28;20822;-84
2021/12/06 12:01:17;;;;;;;40.67;21.92;;;4.60;99.90;;;;;;4968880;28;20500;-85
2021/12/06 12:03:47;;;;;;;39.15;23.00;;;4.70;99.90;;;;;;4988301;28;20067;-83
2021/12/06 12:06:33;;;;;;;40.03;23.83;;;4.60;99.90;;;;;;4970187;28;20490;-83
2021/12/06 12:09:34;;;;;;;44.00;25.70;;;4.80;99.90;;;;;;4966420;28;20620;-84
2021/12/06 12:12:13;;;;;;;38.63;24.45;;;4.80;99.90;;;;;;4959586;28;20059;-84
2021/12/06 12:14:45;;;;;;;43.55;26.02;;;4.80;99.90;;;;;;4986875;28;20704;-85
2021/12/06 12:17:18;;;;;;;45.25;27.13;;;4.80;99.90;;;;;;4967986;28;20064;-83
2021/12/06 12:19:46;;;;;;;45.67;26.38;;;4.80;99.90;;;;;;4972516;28;20049;-83
2021/12/06 12:22:14;;;;;;;45.58;28.15;;;4.80;99.90;;;;;;4966999;28;20861;-84
2021/12/06 12:24:44;;;;;;;49.40;29.50;;;4.60;99.90;;;;;;4970391;28;20056;-84
2021/12/06 12:29:45;;;;;;;48.95;29.60;;;4.70;99.90;;;;;;4969656;28;20800;-85
2021/12/06 12:32:11;;;;;;;50.67;31.02;;;4.70;99.90;;;;;;4975637;28;20059;-84
2021/12/06 12:34:41;;;;;;;50.25;32.17;;;4.60;99.90;;;;;;4967053;28;20638;-83
2021/12/06 12:37:10;;;;;;;51.13;31.58;;;4.60;99.90;;;;;;4983591;28;20094;-85
2021/12/06 12:39:36;;;;;;;55.97;35.00;;;4.70;99.90;;;;;;4962651;28;20897;-84
2021/12/06 12:42:05;;;;;;;64.63;34.38;;;4.60;99.90;;;;;;4979780;28;20908;-84
2021/12/06 12:44:54;;;;;;;56.70;34.60;;;4.50;99.90;;;;;;4990296;28;20544;-82
2021/12/06 12:47:24;;;;;;;59.25;34.95;;;4.60;99.90;;;;;;4974885;28;20147;-84
2021/12/06 12:49:56;;;;;;;53.50;34.95;;;4.70;99.90;;;;;;4967424;28;20280;-84
2021/12/06 12:52:41;;;;;;;60.78;35.97;;;4.60;99.90;;;;;;4988495;28;20055;-84
2021/12/06 12:55:27;;;;;;;58.47;37.97;;;4.70;99.90;;;;;;4972559;28;21023;-85
2021/12/06 12:58:17;;;;;;;61.10;36.00;;;4.80;99.90;;;;;;4975853;28;20048;-85
2021/12/06 13:01:09;;;;;;;57.22;35.75;;;4.90;99.90;;;;;;4950576;28;20059;-85